Terminal Aerodrome Forecast
Issued by NWS Grand Forks, ND

Home | Current Version | Previous Version | Graphics & Text | Print | Product List | Glossary On
Versions: 1 2 3 4 5 6 7 8 9 10 11 12 13 14 15 16 17 18 19 20
272
FTUS43 KFGF 041131
TAFFAR
TAF
KFAR 041131Z 0412/0512 34008KT P6SM BKN090
      TEMPO 0412/0414 BKN025
     FM041400 33008KT P6SM BKN035
     FM041900 32007KT P6SM BKN060
     FM050000 17004KT P6SM BKN120=

USA.gov is the U.S. government's official web portal to all federal, state and local government web resources and services.